createdAt,value
2023-03-03T00:01:15.705Z,99.90
2023-03-03T00:04:37.283Z,99.90
2023-03-03T00:07:58.995Z,99.90
2023-03-03T00:11:22.756Z,99.90
2023-03-03T00:14:44.796Z,99.90
2023-03-03T00:18:13.736Z,99.90
2023-03-03T00:21:40.684Z,99.90
2023-03-03T00:25:21.003Z,99.90
2023-03-03T00:28:45.435Z,99.90
2023-03-03T00:32:17.361Z,99.90
2023-03-03T00:35:39.045Z,99.90
2023-03-03T00:39:16.481Z,99.90
2023-03-03T00:42:41.345Z,99.90
2023-03-03T00:46:04.543Z,99.90
2023-03-03T00:49:26.942Z,99.90
2023-03-03T00:52:53.616Z,99.90
2023-03-03T00:56:15.255Z,99.90
2023-03-03T00:59:36.850Z,99.90
2023-03-03T01:03:01.809Z,99.90
2023-03-03T01:06:23.844Z,99.90
2023-03-03T01:09:45.446Z,99.90
2023-03-03T01:13:07.134Z,99.90
2023-03-03T01:16:28.834Z,99.90
2023-03-03T01:19:51.824Z,99.90
2023-03-03T01:23:13.616Z,99.90
2023-03-03T01:26:35.257Z,99.90
2023-03-03T01:29:57.118Z,99.90
2023-03-03T01:33:19.181Z,99.90
2023-03-03T01:36:42.157Z,99.90
2023-03-03T01:40:04.268Z,99.90
2023-03-03T01:43:26.388Z,99.90
2023-03-03T01:46:51.222Z,99.90
2023-03-03T01:50:14.314Z,99.90
2023-03-03T01:53:41.989Z,99.90
2023-03-03T01:57:05.470Z,99.90
2023-03-03T02:00:27.517Z,99.90
2023-03-03T02:03:49.376Z,99.90
2023-03-03T02:07:11.993Z,99.90
2023-03-03T02:10:34.951Z,99.90
2023-03-03T02:13:56.608Z,99.90
2023-03-03T02:17:18.252Z,99.90
2023-03-03T02:20:46.086Z,99.90
2023-03-03T02:24:09.279Z,99.90
2023-03-03T02:27:32.824Z,99.90
2023-03-03T02:30:54.653Z,99.90
2023-03-03T02:34:17.209Z,99.90
2023-03-03T02:37:39.074Z,99.90
2023-03-03T02:41:03.453Z,99.90
2023-03-03T02:44:28.036Z,99.90
2023-03-03T02:47:49.878Z,99.90
2023-03-03T02:51:11.526Z,99.90
2023-03-03T02:54:33.208Z,99.90
2023-03-03T02:57:54.814Z,99.90
2023-03-03T03:01:18.155Z,99.90
2023-03-03T03:04:39.872Z,99.90
2023-03-03T03:08:01.540Z,99.90
2023-03-03T03:11:23.143Z,99.90
2023-03-03T03:14:44.823Z,99.90
2023-03-03T03:18:07.774Z,99.90
2023-03-03T03:21:29.436Z,99.90
2023-03-03T03:24:51.023Z,99.90
2023-03-03T03:28:12.987Z,99.90
2023-03-03T03:31:34.557Z,99.90
2023-03-03T03:34:57.550Z,99.90
2023-03-03T03:38:19.140Z,99.90
2023-03-03T03:41:40.706Z,99.90
2023-03-03T03:45:02.306Z,99.90
2023-03-03T03:48:23.965Z,99.90
2023-03-03T03:51:47.032Z,99.90
2023-03-03T03:55:09.130Z,99.90
2023-03-03T03:58:30.754Z,99.90
2023-03-03T04:01:52.425Z,99.90
2023-03-03T04:05:14.017Z,99.90
2023-03-03T04:08:36.959Z,99.90
2023-03-03T04:11:58.646Z,99.90
2023-03-03T04:15:20.384Z,99.90
2023-03-03T04:18:42.622Z,99.90
2023-03-03T04:22:05.064Z,99.90
2023-03-03T04:25:28.016Z,99.90
2023-03-03T04:28:49.628Z,99.90
2023-03-03T04:32:11.316Z,99.90
2023-03-03T04:35:32.986Z,99.90
2023-03-03T04:38:54.684Z,99.90
2023-03-03T04:42:17.653Z,99.90
2023-03-03T04:45:39.275Z,99.90
2023-03-03T04:49:00.949Z,99.90
2023-03-03T04:52:22.543Z,99.90
2023-03-03T04:55:44.186Z,99.90
2023-03-03T04:59:07.114Z,99.90
2023-03-03T05:02:28.744Z,99.90
2023-03-03T05:05:50.467Z,99.90
2023-03-03T05:09:12.088Z,99.90
2023-03-03T05:12:33.974Z,99.90
2023-03-03T05:15:57.166Z,99.90
2023-03-03T05:19:18.782Z,99.90
2023-03-03T05:22:40.406Z,99.90
2023-03-03T05:26:02.085Z,99.90
2023-03-03T05:29:23.690Z,99.90
2023-03-03T05:32:46.627Z,99.90
2023-03-03T05:36:08.425Z,99.90
2023-03-03T05:39:30.042Z,99.90
2023-03-03T05:42:51.816Z,99.90
2023-03-03T05:46:13.529Z,99.90
2023-03-03T05:49:36.674Z,99.90
2023-03-03T05:52:58.517Z,99.90
2023-03-03T05:56:20.099Z,99.90
2023-03-03T05:59:41.685Z,99.90
2023-03-03T06:03:03.447Z,99.90
2023-03-03T06:06:26.467Z,99.90
2023-03-03T06:09:48.092Z,99.90
2023-03-03T06:13:09.696Z,99.90
2023-03-03T06:16:31.338Z,99.90
2023-03-03T06:19:52.962Z,99.90
2023-03-03T06:23:15.883Z,99.90
2023-03-03T06:26:37.454Z,99.90
2023-03-03T06:29:59.058Z,99.90
2023-03-03T06:33:20.723Z,99.90
2023-03-03T06:36:42.468Z,99.90
2023-03-03T06:40:06.379Z,99.90
2023-03-03T06:43:28.026Z,99.90
2023-03-03T06:46:49.728Z,99.90
2023-03-03T06:50:11.745Z,99.90
2023-03-03T06:53:33.398Z,99.90
2023-03-03T06:56:58.254Z,99.90
2023-03-03T07:00:23.250Z,99.90
2023-03-03T07:03:45.574Z,99.90
2023-03-03T07:07:10.923Z,99.90
2023-03-03T07:10:32.568Z,99.90
2023-03-03T07:13:55.852Z,99.90
2023-03-03T07:17:18.932Z,99.90
2023-03-03T07:20:40.545Z,99.90
2023-03-03T07:24:15.165Z,99.90
2023-03-03T07:27:37.024Z,99.90
2023-03-03T07:31:00.084Z,99.90
2023-03-03T07:34:22.638Z,99.90
2023-03-03T07:37:44.253Z,99.90
2023-03-03T07:41:10.828Z,99.90
2023-03-03T07:44:34.610Z,99.90
2023-03-03T07:48:01.294Z,99.90
2023-03-03T07:51:23.818Z,99.90
2023-03-03T07:54:45.618Z,99.90
2023-03-03T07:58:17.662Z,99.90
2023-03-03T08:01:40.084Z,99.90
2023-03-03T08:05:21.458Z,99.90
2023-03-03T08:08:43.122Z,99.90
2023-03-03T08:12:18.825Z,99.90
2023-03-03T08:15:40.529Z,99.90
2023-03-03T08:19:02.923Z,99.90
2023-03-03T08:22:29.767Z,99.90
2023-03-03T08:25:51.809Z,99.90
2023-03-03T08:29:13.418Z,99.90
2023-03-03T08:32:35.064Z,99.90
2023-03-03T08:35:56.736Z,99.90
2023-03-03T08:39:19.717Z,99.90
2023-03-03T08:42:41.326Z,99.90
2023-03-03T08:46:03.781Z,99.90
2023-03-03T08:49:25.426Z,99.90
2023-03-03T08:52:47.055Z,99.90
2023-03-03T08:56:10.069Z,99.90
2023-03-03T08:59:31.657Z,99.70
2023-03-03T09:02:53.757Z,98.90
2023-03-03T09:06:15.379Z,99.50
2023-03-03T09:09:36.973Z,97.40
2023-03-03T09:13:00.769Z,99.10
2023-03-03T09:16:22.461Z,98.10
2023-03-03T09:19:44.198Z,99.10
2023-03-03T09:23:24.528Z,99.40
2023-03-03T09:26:46.605Z,98.80
2023-03-03T09:30:16.420Z,99.30
2023-03-03T09:33:41.510Z,98.90
2023-03-03T09:37:15.328Z,99.70
2023-03-03T09:40:47.214Z,99.30
2023-03-03T09:44:27.605Z,99.60
2023-03-03T09:48:19.176Z,99.90
2023-03-03T09:51:45.926Z,99.40
2023-03-03T09:55:26.383Z,99.70
2023-03-03T09:58:55.363Z,99.60
2023-03-03T10:02:24.458Z,99.90
2023-03-03T10:05:48.953Z,99.20
2023-03-03T10:09:29.433Z,99.90
2023-03-03T10:12:58.271Z,99.20
2023-03-03T10:16:29.537Z,99.00
2023-03-03T10:19:57.461Z,98.80
2023-03-03T10:23:21.051Z,99.50
2023-03-03T10:27:09.870Z,98.40
2023-03-03T10:30:46.222Z,98.20
2023-03-03T10:34:22.697Z,99.40
2023-03-03T10:37:48.764Z,98.40
2023-03-03T10:41:14.528Z,98.40
2023-03-03T10:44:44.672Z,98.50
2023-03-03T10:48:16.411Z,98.50
2023-03-03T10:51:44.156Z,97.40
2023-03-03T10:55:16.739Z,98.10
2023-03-03T10:58:45.358Z,97.50
2023-03-03T11:02:13.141Z,98.20
2023-03-03T11:05:40.552Z,97.50
2023-03-03T11:09:05.437Z,97.50
2023-03-03T11:12:33.971Z,98.00
2023-03-03T11:16:01.877Z,98.30
2023-03-03T11:19:34.374Z,97.40
2023-03-03T11:23:00.134Z,97.20
2023-03-03T11:26:26.496Z,96.40
2023-03-03T11:29:57.013Z,95.30
2023-03-03T11:33:20.764Z,97.00
2023-03-03T11:36:45.613Z,96.30
2023-03-03T11:40:12.557Z,95.50
2023-03-03T11:43:38.106Z,95.40
2023-03-03T11:47:02.837Z,94.70
2023-03-03T11:50:27.002Z,94.80
2023-03-03T11:53:57.280Z,94.80
2023-03-03T11:57:20.933Z,95.70
2023-03-03T12:00:47.397Z,95.80
2023-03-03T12:04:11.386Z,96.10
2023-03-03T12:07:40.892Z,95.90
2023-03-03T12:11:07.637Z,95.80
2023-03-03T12:14:42.735Z,96.80
2023-03-03T12:18:16.101Z,95.80
2023-03-03T12:21:44.719Z,96.80
2023-03-03T12:25:21.854Z,96.80
2023-03-03T12:28:49.959Z,97.50
2023-03-03T12:32:16.960Z,96.90
2023-03-03T12:35:42.146Z,97.40
2023-03-03T12:39:06.234Z,97.30
2023-03-03T12:42:37.188Z,97.00
2023-03-03T12:46:04.581Z,97.10
2023-03-03T12:49:34.656Z,97.60
2023-03-03T12:53:10.366Z,97.40
2023-03-03T12:56:35.493Z,97.90
2023-03-03T13:00:11.551Z,98.10
2023-03-03T13:03:53.373Z,98.00
2023-03-03T13:07:18.568Z,97.10
2023-03-03T13:10:44.489Z,97.60
2023-03-03T13:14:12.086Z,96.90
2023-03-03T13:17:37.529Z,96.80
2023-03-03T13:21:05.154Z,97.10
2023-03-03T13:24:29.671Z,97.20
2023-03-03T13:27:53.485Z,96.60
2023-03-03T13:31:16.892Z,96.60
2023-03-03T13:34:41.921Z,96.00
2023-03-03T13:38:06.354Z,95.70
2023-03-03T13:41:30.125Z,95.90
2023-03-03T13:44:52.749Z,95.70
2023-03-03T13:48:22.506Z,95.90
2023-03-03T13:51:47.312Z,96.10
2023-03-03T13:55:17.620Z,96.00
2023-03-03T13:58:45.261Z,96.10
2023-03-03T14:02:22.880Z,96.00
2023-03-03T14:05:45.552Z,96.00
2023-03-03T14:09:21.374Z,95.70
2023-03-03T14:12:47.497Z,95.80
2023-03-03T14:16:16.399Z,95.90
2023-03-03T14:19:40.372Z,95.70
2023-03-03T14:23:02.865Z,95.90
2023-03-03T14:26:24.882Z,95.60
2023-03-03T14:29:47.883Z,95.40
2023-03-03T14:33:17.900Z,95.40
2023-03-03T14:36:40.274Z,95.20
2023-03-03T14:40:11.379Z,95.40
2023-03-03T14:43:34.112Z,95.30
2023-03-03T14:47:10.701Z,95.50
2023-03-03T14:50:35.548Z,95.40
2023-03-03T14:53:57.527Z,95.90
2023-03-03T14:57:20.062Z,95.80
2023-03-03T15:00:41.697Z,95.40
2023-03-03T15:04:04.345Z,95.30
2023-03-03T15:07:31.780Z,95.60
2023-03-03T15:10:53.430Z,95.50
2023-03-03T15:14:16.623Z,95.30
2023-03-03T15:17:38.941Z,95.80
2023-03-03T15:21:03.507Z,95.50
2023-03-03T15:24:29.355Z,96.20
2023-03-03T15:27:53.478Z,95.30
2023-03-03T15:31:21.305Z,95.70
2023-03-03T15:34:44.629Z,95.80
2023-03-03T15:38:12.954Z,95.70
2023-03-03T15:41:41.348Z,95.70
2023-03-03T15:45:06.629Z,96.10
2023-03-03T15:48:42.058Z,95.80
2023-03-03T15:52:10.728Z,96.10
2023-03-03T15:55:36.803Z,95.90
2023-03-03T15:59:17.499Z,95.70
2023-03-03T16:02:45.291Z,95.90
2023-03-03T16:06:10.816Z,95.80
2023-03-03T16:09:41.636Z,95.90
2023-03-03T16:13:11.945Z,96.10
2023-03-03T16:16:41.560Z,96.60
2023-03-03T16:20:09.738Z,96.90
2023-03-03T16:23:34.736Z,96.50
2023-03-03T16:26:59.459Z,96.80
2023-03-03T16:30:27.478Z,96.90
2023-03-03T16:33:56.729Z,97.10
2023-03-03T16:37:20.849Z,97.30
2023-03-03T16:40:44.790Z,97.30
2023-03-03T16:44:12.670Z,97.50
2023-03-03T16:47:41.354Z,97.70
2023-03-03T16:51:10.127Z,97.90
2023-03-03T16:54:34.649Z,98.10
2023-03-03T16:58:02.608Z,98.50
2023-03-03T17:01:28.454Z,98.60
2023-03-03T17:04:53.494Z,98.70
2023-03-03T17:08:38.861Z,99.00
2023-03-03T17:12:08.562Z,99.20
2023-03-03T17:15:36.507Z,99.10
2023-03-03T17:19:06.355Z,99.30
2023-03-03T17:22:31.544Z,99.80
2023-03-03T17:25:55.659Z,99.90
2023-03-03T17:29:31.483Z,99.90
2023-03-03T17:33:04.249Z,99.90
2023-03-03T17:36:31.405Z,99.90
2023-03-03T17:40:01.386Z,99.90
2023-03-03T17:43:25.188Z,99.90
2023-03-03T17:46:50.283Z,99.90
2023-03-03T17:50:17.114Z,99.90
2023-03-03T17:53:47.367Z,99.90
2023-03-03T17:57:17.086Z,99.90
2023-03-03T18:00:48.164Z,99.90
2023-03-03T18:04:26.384Z,99.90
2023-03-03T18:07:52.797Z,99.90
2023-03-03T18:11:19.266Z,99.90
2023-03-03T18:14:53.657Z,99.90
2023-03-03T18:18:24.498Z,99.90
2023-03-03T18:21:53.327Z,99.90
2023-03-03T18:25:15.720Z,99.90
2023-03-03T18:28:44.405Z,99.90
2023-03-03T18:32:19.821Z,99.90
2023-03-03T18:35:42.403Z,99.90
2023-03-03T18:39:06.024Z,99.90
2023-03-03T18:42:38.143Z,99.90
2023-03-03T18:45:59.842Z,99.90
2023-03-03T18:49:40.122Z,99.90
2023-03-03T18:53:19.009Z,99.90
2023-03-03T18:56:47.194Z,99.90
2023-03-03T19:00:14.016Z,99.90
2023-03-03T19:03:36.668Z,99.90
2023-03-03T19:07:13.365Z,99.90
2023-03-03T19:10:53.024Z,99.90
2023-03-03T19:14:19.801Z,99.90
2023-03-03T19:17:46.170Z,99.90
2023-03-03T19:21:19.731Z,99.90
2023-03-03T19:25:01.434Z,99.90
2023-03-03T19:28:31.436Z,99.90
2023-03-03T19:31:58.468Z,99.90
2023-03-03T19:35:25.811Z,99.90
2023-03-03T19:38:55.534Z,99.90
2023-03-03T19:42:20.969Z,99.90
2023-03-03T19:45:50.316Z,99.90
2023-03-03T19:49:18.434Z,99.90
2023-03-03T19:52:43.371Z,99.90
2023-03-03T19:56:18.938Z,99.90
2023-03-03T19:59:44.498Z,99.90
2023-03-03T20:03:24.862Z,99.90
2023-03-03T20:06:56.402Z,99.90
2023-03-03T20:10:28.453Z,99.90
2023-03-03T20:13:54.993Z,99.90
2023-03-03T20:17:29.928Z,99.90
2023-03-03T20:20:55.956Z,99.90
2023-03-03T20:24:28.041Z,99.90
2023-03-03T20:27:54.424Z,99.90
2023-03-03T20:31:18.967Z,99.90
2023-03-03T20:34:45.675Z,99.90
2023-03-03T20:38:12.649Z,99.90
2023-03-03T20:41:48.960Z,99.90
2023-03-03T20:45:18.650Z,99.90
2023-03-03T20:48:48.921Z,99.90
2023-03-03T20:52:13.689Z,99.90
2023-03-03T20:55:41.574Z,99.90
2023-03-03T20:59:13.333Z,99.90
2023-03-03T21:02:38.487Z,99.90
2023-03-03T21:06:00.993Z,99.90
2023-03-03T21:09:24.111Z,99.90
2023-03-03T21:12:45.737Z,99.90
2023-03-03T21:16:11.527Z,99.90
2023-03-03T21:19:34.315Z,99.90
2023-03-03T21:22:56.578Z,99.90
2023-03-03T21:26:33.068Z,99.90
2023-03-03T21:30:08.437Z,99.90
2023-03-03T21:33:52.464Z,99.90
2023-03-03T21:37:34.298Z,99.90
2023-03-03T21:40:59.319Z,99.90
2023-03-03T21:44:31.289Z,99.90
2023-03-03T21:47:52.936Z,99.90
2023-03-03T21:51:15.990Z,99.90
2023-03-03T21:54:37.597Z,99.90
2023-03-03T21:57:59.186Z,99.90
2023-03-03T22:01:20.795Z,99.90
2023-03-03T22:04:42.467Z,99.90
2023-03-03T22:08:05.534Z,99.90
2023-03-03T22:11:27.115Z,99.90
2023-03-03T22:14:48.874Z,99.90
2023-03-03T22:18:10.549Z,99.90
2023-03-03T22:21:32.298Z,99.90
2023-03-03T22:24:55.456Z,99.90
2023-03-03T22:28:17.052Z,99.90
2023-03-03T22:31:38.801Z,99.90
2023-03-03T22:35:00.530Z,99.90
2023-03-03T22:38:22.093Z,99.90
2023-03-03T22:41:45.041Z,99.90
2023-03-03T22:45:07.500Z,99.90
2023-03-03T22:48:29.620Z,99.90
2023-03-03T22:51:51.233Z,99.90
2023-03-03T22:55:12.886Z,99.90
2023-03-03T22:58:35.900Z,99.90
2023-03-03T23:01:57.480Z,99.90
2023-03-03T23:05:19.110Z,99.90
2023-03-03T23:08:40.741Z,99.90
2023-03-03T23:12:02.356Z,99.90
2023-03-03T23:15:25.324Z,99.90
2023-03-03T23:18:46.896Z,99.90
2023-03-03T23:22:08.462Z,99.90
2023-03-03T23:25:30.498Z,99.90
2023-03-03T23:28:52.091Z,99.90
2023-03-03T23:32:15.091Z,99.90
2023-03-03T23:35:36.747Z,99.90
2023-03-03T23:38:58.378Z,99.90
2023-03-03T23:42:20.011Z,99.90
2023-03-03T23:45:41.606Z,99.90
2023-03-03T23:49:04.540Z,99.90
2023-03-03T23:52:26.129Z,99.90
2023-03-03T23:55:47.717Z,99.90
2023-03-03T23:59:09.311Z,99.90
